createdAt,value
2019-01-14T00:02:58.139Z,1.07
2019-01-14T00:06:02.644Z,1.10
2019-01-14T00:09:08.512Z,1.10
2019-01-14T00:12:12.946Z,0.90
2019-01-14T00:15:17.439Z,1.23
2019-01-14T00:18:22.210Z,0.93
2019-01-14T00:21:26.645Z,0.90
2019-01-14T00:24:31.366Z,1.20
2019-01-14T00:27:35.802Z,1.00
2019-01-14T00:30:40.522Z,1.17
2019-01-14T00:33:45.432Z,1.30
2019-01-14T00:36:50.195Z,1.33
2019-01-14T00:39:54.925Z,1.30
2019-01-14T00:43:00.057Z,0.93
2019-01-14T00:46:04.891Z,1.00
2019-01-14T00:49:09.323Z,1.10
2019-01-14T00:52:14.045Z,0.90
2019-01-14T00:55:18.473Z,0.83
2019-01-14T00:58:23.200Z,1.23
2019-01-14T01:01:27.629Z,0.93
2019-01-14T01:04:32.062Z,1.10
2019-01-14T01:07:36.497Z,1.40
2019-01-14T01:10:41.200Z,1.00
2019-01-14T01:13:45.638Z,0.97
2019-01-14T01:16:50.353Z,1.30
2019-01-14T01:19:54.789Z,1.73
2019-01-14T01:22:59.219Z,1.17
2019-01-14T01:26:04.652Z,1.40
2019-01-14T01:29:09.086Z,1.37
2019-01-14T01:32:13.509Z,4.10
2019-01-14T01:35:18.089Z,0.97
2019-01-14T01:38:22.529Z,1.10
2019-01-14T01:41:26.965Z,1.30
2019-01-14T01:44:31.701Z,1.00
2019-01-14T01:47:36.195Z,1.33
2019-01-14T01:50:40.964Z,1.23
2019-01-14T01:53:45.397Z,1.03
2019-01-14T01:56:50.115Z,1.43
2019-01-14T01:59:54.568Z,0.90
2019-01-14T02:02:59.078Z,1.30
2019-01-14T02:06:03.507Z,1.17
2019-01-14T02:09:08.939Z,1.03
2019-01-14T02:12:13.668Z,1.93
2019-01-14T02:15:20.501Z,0.90
2019-01-14T02:18:24.938Z,1.70
2019-01-14T02:21:29.366Z,1.20
2019-01-14T02:24:33.803Z,1.37
2019-01-14T02:27:38.547Z,1.20
2019-01-14T02:30:42.978Z,1.10
2019-01-14T02:33:47.407Z,1.40
2019-01-14T02:36:51.834Z,1.13
2019-01-14T02:39:56.267Z,1.10
2019-01-14T02:43:00.690Z,1.57
2019-01-14T02:46:05.264Z,1.07
2019-01-14T02:49:09.705Z,1.03
2019-01-14T02:52:14.131Z,1.03
2019-01-14T02:55:18.629Z,1.00
2019-01-14T02:58:23.056Z,1.00
2019-01-14T03:01:27.489Z,1.00
2019-01-14T03:04:31.929Z,1.07
2019-01-14T03:07:36.669Z,1.20
2019-01-14T03:10:41.413Z,1.47
2019-01-14T03:13:46.128Z,1.00
2019-01-14T03:16:50.550Z,1.17
2019-01-14T03:19:54.987Z,1.40
2019-01-14T03:22:59.705Z,1.50
2019-01-14T03:26:04.135Z,1.00
2019-01-14T03:29:08.577Z,1.50
2019-01-14T03:32:13.018Z,1.10
2019-01-14T03:35:17.707Z,1.73
2019-01-14T03:38:22.438Z,1.00
2019-01-14T03:41:26.875Z,1.37
2019-01-14T03:44:31.594Z,1.20
2019-01-14T03:47:36.026Z,1.67
2019-01-14T03:50:40.466Z,1.27
2019-01-14T03:53:45.171Z,1.33
2019-01-14T03:56:49.606Z,1.60
2019-01-14T03:59:54.048Z,1.30
2019-01-14T04:02:58.747Z,1.63
2019-01-14T04:06:03.187Z,1.47
2019-01-14T04:09:08.315Z,1.40
2019-01-14T04:12:12.748Z,3.30
2019-01-14T04:15:19.315Z,1.17
2019-01-14T04:18:24.042Z,1.43
2019-01-14T04:21:28.480Z,1.83
2019-01-14T04:24:33.199Z,2.50
2019-01-14T04:27:37.645Z,1.77
2019-01-14T04:30:42.354Z,1.47
2019-01-14T04:33:46.788Z,1.40
2019-01-14T04:36:51.501Z,2.63
2019-01-14T04:39:55.933Z,1.30
2019-01-14T04:43:01.063Z,2.30
2019-01-14T04:46:05.504Z,1.80
2019-01-14T04:49:10.002Z,1.27
2019-01-14T04:52:14.762Z,1.90
2019-01-14T04:55:19.330Z,1.53
2019-01-14T04:58:23.765Z,2.40
2019-01-14T05:01:28.536Z,2.40
2019-01-14T05:04:32.963Z,1.73
2019-01-14T05:07:37.393Z,2.20
2019-01-14T05:10:41.821Z,1.43
2019-01-14T05:13:46.530Z,2.00
2019-01-14T05:16:51.260Z,2.17
2019-01-14T05:19:55.998Z,2.27
2019-01-14T05:23:00.842Z,1.57
2019-01-14T05:26:05.347Z,1.67
2019-01-14T05:29:09.778Z,1.87
2019-01-14T05:32:14.220Z,1.40
2019-01-14T05:35:18.811Z,1.67
2019-01-14T05:38:23.558Z,1.80
2019-01-14T05:41:27.999Z,1.70
2019-01-14T05:44:32.713Z,1.33
2019-01-14T05:47:37.445Z,1.73
2019-01-14T05:50:42.174Z,1.70
2019-01-14T05:53:46.610Z,1.90
2019-01-14T05:56:51.647Z,1.50
2019-01-14T05:59:56.374Z,1.70
2019-01-14T06:03:00.806Z,2.00
2019-01-14T06:06:05.232Z,2.20
2019-01-14T06:09:09.945Z,2.00
2019-01-14T06:12:14.376Z,1.47
2019-01-14T06:15:19.745Z,1.73
2019-01-14T06:18:24.173Z,1.60
2019-01-14T06:21:28.598Z,1.53
2019-01-14T06:24:33.030Z,1.33
2019-01-14T06:27:37.483Z,1.40
2019-01-14T06:30:41.914Z,2.00
2019-01-14T06:33:46.349Z,1.90
2019-01-14T06:36:50.783Z,1.63
2019-01-14T06:39:55.225Z,1.70
2019-01-14T06:42:59.663Z,1.73
2019-01-14T06:46:04.168Z,1.67
2019-01-14T06:49:08.888Z,2.23
2019-01-14T06:52:13.613Z,1.50
2019-01-14T06:55:18.895Z,2.20
2019-01-14T06:58:23.394Z,1.53
2019-01-14T07:01:27.819Z,2.40
2019-01-14T07:04:32.256Z,1.60
2019-01-14T07:07:36.960Z,1.70
2019-01-14T07:10:41.465Z,2.03
2019-01-14T07:13:45.906Z,1.70
2019-01-14T07:16:50.332Z,1.67
2019-01-14T07:19:55.068Z,1.53
2019-01-14T07:22:59.489Z,1.23
2019-01-14T07:26:03.922Z,1.53
2019-01-14T07:29:08.358Z,2.27
2019-01-14T07:32:12.790Z,1.50
2019-01-14T07:35:17.695Z,2.57
2019-01-14T07:38:22.119Z,1.70
2019-01-14T07:41:26.553Z,2.13
2019-01-14T07:44:30.986Z,1.80
2019-01-14T07:47:35.695Z,2.00
2019-01-14T07:50:40.131Z,2.37
2019-01-14T07:53:45.471Z,1.90
2019-01-14T07:56:50.603Z,2.33
2019-01-14T07:59:56.157Z,2.03
2019-01-14T08:03:00.582Z,1.90
2019-01-14T08:06:05.308Z,2.60
2019-01-14T08:09:09.840Z,3.27
2019-01-14T08:12:14.567Z,2.60
2019-01-14T08:15:21.020Z,2.87
2019-01-14T08:18:25.765Z,2.60
2019-01-14T08:21:30.205Z,2.73
2019-01-14T08:24:34.643Z,2.67
2019-01-14T08:27:39.444Z,2.63
2019-01-14T08:30:43.884Z,2.23
2019-01-14T08:33:48.302Z,2.60
2019-01-14T08:36:52.745Z,3.10
2019-01-14T08:39:57.453Z,2.60
2019-01-14T08:43:02.178Z,2.53
2019-01-14T08:46:07.221Z,3.20
2019-01-14T08:49:11.655Z,2.97
2019-01-14T08:52:16.095Z,2.73
2019-01-14T08:55:20.528Z,2.40
2019-01-14T08:58:25.027Z,3.07
2019-01-14T09:01:29.466Z,2.30
2019-01-14T09:04:33.896Z,2.53
2019-01-14T09:07:38.325Z,2.27
2019-01-14T09:10:43.016Z,1.97
2019-01-14T09:13:47.443Z,2.20
2019-01-14T09:16:51.875Z,2.23
2019-01-14T09:19:56.311Z,2.40
2019-01-14T09:23:01.014Z,2.83
2019-01-14T09:26:05.821Z,2.30
2019-01-14T09:29:10.250Z,2.43
2019-01-14T09:32:15.006Z,2.10
2019-01-14T09:35:19.608Z,2.73
2019-01-14T09:38:24.039Z,2.60
2019-01-14T09:41:28.788Z,2.60
2019-01-14T09:44:33.216Z,2.43
2019-01-14T09:47:37.941Z,2.47
2019-01-14T09:50:42.697Z,2.70
2019-01-14T09:53:47.099Z,2.67
2019-01-14T09:56:51.537Z,2.60
2019-01-14T09:59:55.966Z,2.67
2019-01-14T10:03:00.673Z,2.63
2019-01-14T10:06:05.507Z,2.40
2019-01-14T10:09:09.929Z,2.23
2019-01-14T10:12:14.364Z,2.23
2019-01-14T10:15:24.202Z,2.73
2019-01-14T10:18:28.632Z,2.90
2019-01-14T10:21:33.062Z,2.73
2019-01-14T10:24:37.491Z,2.20
2019-01-14T10:27:41.929Z,2.73
2019-01-14T10:30:46.361Z,2.27
2019-01-14T10:33:50.792Z,2.23
2019-01-14T10:36:55.233Z,2.63
2019-01-14T10:39:59.660Z,2.37
2019-01-14T10:43:04.152Z,2.47
2019-01-14T10:46:08.591Z,2.93
2019-01-14T10:49:13.273Z,2.70
2019-01-14T10:52:17.713Z,2.90
2019-01-14T10:55:22.141Z,2.40
2019-01-14T10:58:26.865Z,2.63
2019-01-14T11:01:31.580Z,2.30
2019-01-14T11:04:36.014Z,2.57
2019-01-14T11:07:40.743Z,2.37
2019-01-14T11:10:45.174Z,2.50
2019-01-14T11:13:49.893Z,3.00
2019-01-14T11:16:54.326Z,3.87
2019-01-14T11:19:59.043Z,3.63
2019-01-14T11:23:03.882Z,4.40
2019-01-14T11:26:12.393Z,2.43
2019-01-14T11:29:16.823Z,2.33
2019-01-14T11:32:21.768Z,2.40
2019-01-14T11:35:26.486Z,2.40
2019-01-14T11:38:46.705Z,3.00
2019-01-14T11:41:51.137Z,2.20
2019-01-14T11:44:55.833Z,2.13
2019-01-14T11:48:00.335Z,2.50
2019-01-14T11:51:05.040Z,2.67
2019-01-14T11:54:09.717Z,3.27
2019-01-14T11:57:14.156Z,2.20
2019-01-14T12:00:28.292Z,1.90
2019-01-14T12:03:33.027Z,2.07
2019-01-14T12:06:37.777Z,2.30
2019-01-14T12:09:42.201Z,2.60
2019-01-14T12:12:46.632Z,2.00
2019-01-14T12:15:51.062Z,2.40
2019-01-14T12:18:55.758Z,2.10
2019-01-14T12:22:00.490Z,1.90
2019-01-14T12:25:08.125Z,1.60
2019-01-14T12:28:12.567Z,2.17
2019-01-14T12:31:16.996Z,1.93
2019-01-14T12:34:21.442Z,2.00
2019-01-14T12:37:26.188Z,1.80
2019-01-14T12:40:30.920Z,1.40
2019-01-14T12:43:35.654Z,1.70
2019-01-14T12:46:42.041Z,2.50
2019-01-14T12:49:46.598Z,2.03
2019-01-14T12:52:51.035Z,1.70
2019-01-14T12:55:55.803Z,1.80
2019-01-14T12:59:00.233Z,1.90
2019-01-14T13:02:04.963Z,1.90
2019-01-14T13:05:10.942Z,1.77
2019-01-14T13:08:15.374Z,1.77
2019-01-14T13:11:23.281Z,2.17
2019-01-14T13:14:26.234Z,1.00
2019-01-14T13:17:30.670Z,1.53
2019-01-14T13:20:35.096Z,1.03
2019-01-14T13:23:39.819Z,0.50
2019-01-14T13:26:44.664Z,0.50
2019-01-14T13:29:49.378Z,0.40
2019-01-14T13:32:54.048Z,0.53
2019-01-14T13:35:58.741Z,0.60
2019-01-14T13:39:04.545Z,0.60
2019-01-14T13:42:08.971Z,2.40
2019-01-14T13:45:19.789Z,0.80
2019-01-14T13:48:24.299Z,0.53
2019-01-14T13:51:29.047Z,0.67
2019-01-14T13:54:33.777Z,0.83
2019-01-14T13:57:38.203Z,0.60
2019-01-14T14:00:42.640Z,0.60
2019-01-14T14:03:47.357Z,0.70
2019-01-14T14:06:52.101Z,0.63
2019-01-14T14:09:56.543Z,0.53
2019-01-14T14:13:00.961Z,0.67
2019-01-14T14:16:05.986Z,1.03
2019-01-14T14:19:10.696Z,0.77
2019-01-14T14:22:15.135Z,0.97
2019-01-14T14:25:21.391Z,1.17
2019-01-14T14:28:26.124Z,0.83
2019-01-14T14:31:30.848Z,0.70
2019-01-14T14:34:35.292Z,0.87
2019-01-14T14:37:39.719Z,0.80
2019-01-14T14:40:44.429Z,0.80
2019-01-14T14:43:49.162Z,1.10
2019-01-14T14:46:53.597Z,0.90
2019-01-14T14:49:58.028Z,0.90
2019-01-14T14:53:02.454Z,1.17
2019-01-14T14:56:06.885Z,1.30
2019-01-14T14:59:11.324Z,0.93
2019-01-14T15:02:15.758Z,1.40
2019-01-14T15:05:20.427Z,1.50
2019-01-14T15:08:24.848Z,1.67
2019-01-14T15:11:29.586Z,1.67
2019-01-14T15:14:34.321Z,1.27
2019-01-14T15:17:39.047Z,1.67
2019-01-14T15:20:43.549Z,1.40
2019-01-14T15:23:47.986Z,1.67
2019-01-14T15:26:52.422Z,1.50
2019-01-14T15:29:56.859Z,2.30
2019-01-14T15:33:01.694Z,1.60
2019-01-14T15:36:06.130Z,1.57
2019-01-14T15:39:11.244Z,1.50
2019-01-14T15:42:15.914Z,2.23
2019-01-14T15:45:23.499Z,1.90
2019-01-14T15:48:27.941Z,1.97
2019-01-14T15:51:32.374Z,1.40
2019-01-14T15:54:36.804Z,1.70
2019-01-14T15:57:41.571Z,1.30
2019-01-14T16:00:46.004Z,1.90
2019-01-14T16:03:50.440Z,1.73
2019-01-14T16:06:55.355Z,1.80
2019-01-14T16:09:59.790Z,1.80
2019-01-14T16:13:04.213Z,1.77
2019-01-14T16:16:08.646Z,2.00
2019-01-14T16:19:13.071Z,1.60
2019-01-14T16:22:17.506Z,1.60
2019-01-14T16:25:21.935Z,1.90
2019-01-14T16:28:26.365Z,2.00
2019-01-14T16:31:31.156Z,1.90
2019-01-14T16:34:35.588Z,2.50
2019-01-14T16:37:40.024Z,2.00
2019-01-14T16:40:44.526Z,2.00
2019-01-14T16:43:48.959Z,2.43
2019-01-14T16:46:53.682Z,2.93
2019-01-14T16:49:58.112Z,2.30
2019-01-14T16:53:02.549Z,1.80
2019-01-14T16:56:06.979Z,1.83
2019-01-14T16:59:11.423Z,1.93
2019-01-14T17:02:16.213Z,2.20
2019-01-14T17:05:20.710Z,1.80
2019-01-14T17:08:25.141Z,1.70
2019-01-14T17:11:29.905Z,1.97
2019-01-14T17:14:34.629Z,2.00
2019-01-14T17:17:39.058Z,2.33
2019-01-14T17:20:43.792Z,2.13
2019-01-14T17:23:48.224Z,1.70
2019-01-14T17:26:52.951Z,2.30
2019-01-14T17:29:57.679Z,2.70
2019-01-14T17:33:02.104Z,2.47
2019-01-14T17:36:06.559Z,2.53
2019-01-14T17:39:11.366Z,1.50
2019-01-14T17:42:17.206Z,1.40
2019-01-14T17:45:21.932Z,1.27
2019-01-14T17:48:26.666Z,1.90
2019-01-14T17:51:31.391Z,1.43
2019-01-14T17:54:36.266Z,1.40
2019-01-14T17:57:40.695Z,1.50
2019-01-14T18:00:45.379Z,1.40
2019-01-14T18:03:49.847Z,1.33
2019-01-14T18:06:54.540Z,1.10
2019-01-14T18:09:59.414Z,1.70
2019-01-14T18:13:04.292Z,1.50
2019-01-14T18:16:08.728Z,1.50
2019-01-14T18:19:13.511Z,1.90
2019-01-14T18:22:18.226Z,1.53
2019-01-14T18:25:22.672Z,3.50
2019-01-14T18:28:27.523Z,1.80
2019-01-14T18:31:32.357Z,1.40
2019-01-14T18:34:36.791Z,1.83
2019-01-14T18:37:41.639Z,1.53
2019-01-14T18:40:47.299Z,1.20
2019-01-14T18:43:51.870Z,1.80
2019-01-14T18:46:56.316Z,1.83
2019-01-14T18:50:00.759Z,1.53
2019-01-14T18:53:05.195Z,1.50
2019-01-14T18:56:09.699Z,1.57
2019-01-14T18:59:14.134Z,1.30
2019-01-14T19:02:18.556Z,1.43
2019-01-14T19:05:23.394Z,1.57
2019-01-14T19:08:27.838Z,1.20
2019-01-14T19:11:32.278Z,1.20
2019-01-14T19:14:36.783Z,1.60
2019-01-14T19:17:41.503Z,1.63
2019-01-14T19:20:45.934Z,1.40
2019-01-14T19:23:50.372Z,1.37
2019-01-14T19:26:54.801Z,1.37
2019-01-14T19:29:59.239Z,1.87
2019-01-14T19:33:03.667Z,1.50
2019-01-14T19:36:08.236Z,1.33
2019-01-14T19:39:12.974Z,1.50
2019-01-14T19:42:17.406Z,1.90
2019-01-14T19:45:22.777Z,1.63
2019-01-14T19:48:27.779Z,1.63
2019-01-14T19:51:32.510Z,1.40
2019-01-14T19:54:36.945Z,1.50
2019-01-14T19:57:41.666Z,1.70
2019-01-14T20:00:46.097Z,1.70
2019-01-14T20:03:50.538Z,2.00
2019-01-14T20:06:54.965Z,1.80
2019-01-14T20:09:59.670Z,1.73
2019-01-14T20:13:04.097Z,1.50
2019-01-14T20:16:08.545Z,1.63
2019-01-14T20:19:13.000Z,2.00
2019-01-14T20:22:18.390Z,2.00
2019-01-14T20:25:22.829Z,1.50
2019-01-14T20:28:27.261Z,2.27
2019-01-14T20:31:31.704Z,1.77
2019-01-14T20:34:36.141Z,1.60
2019-01-14T20:37:40.921Z,2.10
2019-01-14T20:40:45.393Z,1.70
2019-01-14T20:43:49.826Z,1.83
2019-01-14T20:46:54.597Z,2.50
2019-01-14T20:49:59.327Z,2.07
2019-01-14T20:53:03.780Z,1.60
2019-01-14T20:56:08.226Z,1.83
2019-01-14T20:59:12.692Z,2.30
2019-01-14T21:02:17.115Z,1.97
2019-01-14T21:05:22.073Z,2.40
2019-01-14T21:08:26.494Z,2.30
2019-01-14T21:11:31.319Z,2.27
2019-01-14T21:14:35.798Z,2.30
2019-01-14T21:17:40.575Z,2.80
2019-01-14T21:20:45.305Z,2.60
2019-01-14T21:23:50.036Z,2.07
2019-01-14T21:26:54.476Z,2.50
2019-01-14T21:29:59.197Z,2.00
2019-01-14T21:33:03.927Z,3.00
2019-01-14T21:36:08.362Z,2.07
2019-01-14T21:39:13.082Z,2.63
2019-01-14T21:42:17.810Z,3.37
2019-01-14T21:45:24.983Z,2.83
2019-01-14T21:48:29.740Z,2.60
2019-01-14T21:51:34.174Z,2.80
2019-01-14T21:54:38.884Z,2.87
2019-01-14T21:57:43.611Z,3.30
2019-01-14T22:00:48.339Z,2.80
2019-01-14T22:03:53.261Z,2.70
2019-01-14T22:06:57.682Z,3.03
2019-01-14T22:10:02.425Z,3.20
2019-01-14T22:13:07.183Z,3.00
2019-01-14T22:16:11.621Z,2.80
2019-01-14T22:19:16.054Z,3.10
2019-01-14T22:22:20.487Z,3.30
2019-01-14T22:25:24.915Z,3.90
2019-01-14T22:28:29.750Z,3.40
2019-01-14T22:31:34.187Z,3.63
2019-01-14T22:34:38.949Z,4.70
2019-01-14T22:37:43.379Z,4.17
2019-01-14T22:40:47.815Z,4.83
2019-01-14T22:43:52.433Z,5.30
2019-01-14T22:46:56.869Z,5.30
2019-01-14T22:50:01.578Z,4.00
2019-01-14T22:53:06.015Z,3.37
2019-01-14T22:56:10.440Z,3.27
2019-01-14T22:59:14.879Z,3.40
2019-01-14T23:02:19.318Z,3.80
2019-01-14T23:05:24.009Z,3.47
2019-01-14T23:08:28.449Z,3.37
2019-01-14T23:11:32.952Z,2.97
2019-01-14T23:14:37.678Z,3.17
2019-01-14T23:17:42.416Z,3.40
2019-01-14T23:20:46.839Z,3.10
2019-01-14T23:23:51.603Z,3.40
2019-01-14T23:26:56.401Z,3.47
2019-01-14T23:30:00.834Z,3.30
2019-01-14T23:33:05.334Z,3.27
2019-01-14T23:36:09.808Z,3.13
2019-01-14T23:39:14.247Z,2.47
2019-01-14T23:42:18.682Z,2.63
2019-01-14T23:45:23.113Z,2.90
2019-01-14T23:48:27.559Z,2.30
2019-01-14T23:51:31.984Z,2.50
2019-01-14T23:54:37.062Z,2.63
2019-01-14T23:57:41.680Z,2.70
